createdAt,value
2017-10-14T00:00:03.009Z,7.5
2017-10-14T00:15:03.283Z,7.2
2017-10-14T00:30:03.478Z,6.8
2017-10-14T00:45:04.083Z,6.9
2017-10-14T01:00:03.044Z,6.9
2017-10-14T01:15:03.082Z,6.6
2017-10-14T01:30:03.027Z,6.6
2017-10-14T01:45:02.829Z,6.5
2017-10-14T02:00:05.244Z,6.6
2017-10-14T02:15:03.113Z,6.4
2017-10-14T02:30:03.826Z,6.2
2017-10-14T02:45:04.413Z,6.2
2017-10-14T03:00:03.253Z,5.9
2017-10-14T03:15:03.080Z,6.1
2017-10-14T03:30:04.007Z,5.9
2017-10-14T03:45:03.377Z,6
2017-10-14T04:00:03.581Z,6.1
2017-10-14T04:15:04.233Z,6.2
2017-10-14T04:30:03.740Z,6.2
2017-10-14T04:45:03.041Z,6.3
2017-10-14T05:00:03.387Z,6.4
2017-10-14T05:15:03.318Z,6.2
2017-10-14T05:30:04.848Z,5.9
2017-10-14T05:45:04.322Z,6.2
2017-10-14T06:00:04.515Z,6.4
2017-10-14T06:15:04.554Z,6.5
2017-10-14T06:30:03.949Z,6.5
2017-10-14T06:45:02.942Z,6.8
2017-10-14T07:00:02.923Z,6.9
2017-10-14T07:15:04.419Z,7.4
2017-10-14T07:30:04.624Z,7.5
2017-10-14T07:45:05.277Z,8
2017-10-14T08:00:04.370Z,8.6
2017-10-14T08:15:03.267Z,8.8
2017-10-14T08:30:04.056Z,9
2017-10-14T08:45:02.960Z,9.6
2017-10-14T09:00:03.563Z,10.7
2017-10-14T09:15:04.005Z,11.7
2017-10-14T09:30:02.957Z,12.7
2017-10-14T09:45:03.739Z,13.9
2017-10-14T10:00:04.751Z,14.9
2017-10-14T10:15:03.868Z,15.7
2017-10-14T10:30:02.879Z,16.3
2017-10-14T10:45:04.379Z,17
2017-10-14T11:00:04.061Z,18.1
2017-10-14T11:15:03.540Z,18.2
2017-10-14T11:30:04.272Z,18.9
2017-10-14T11:45:05.074Z,18.8
2017-10-14T12:00:03.460Z,18.6
2017-10-14T12:15:03.323Z,19.1
2017-10-14T12:30:04.379Z,20.2
2017-10-14T12:45:03.942Z,20.3
2017-10-14T13:00:03.032Z,20.7
2017-10-14T13:15:03.058Z,19.6
2017-10-14T13:30:03.123Z,20.1
2017-10-14T13:45:03.032Z,20.2
2017-10-14T14:00:03.035Z,20.2
2017-10-14T14:15:02.932Z,20.2
2017-10-14T14:30:02.941Z,20.1
2017-10-14T14:45:02.796Z,20.3
2017-10-14T15:00:02.995Z,20.2
2017-10-14T15:15:02.932Z,19.7
2017-10-14T15:30:02.928Z,19.1
2017-10-14T15:45:04.354Z,18.2
2017-10-14T16:00:05.238Z,16.9
2017-10-14T16:15:03.886Z,15.8
2017-10-14T16:30:03.051Z,15.1
2017-10-14T16:45:02.753Z,14.2
2017-10-14T17:00:03.590Z,13.6
2017-10-14T17:15:03.717Z,13.3
2017-10-14T17:30:03.551Z,12.9
2017-10-14T17:45:03.497Z,12.4
2017-10-14T18:00:04.282Z,12.2
2017-10-14T18:15:04.187Z,11.8
2017-10-14T18:30:04.543Z,11.6
2017-10-14T18:45:03.638Z,11.4
2017-10-14T19:00:04.440Z,11.1
2017-10-14T19:15:03.926Z,11
2017-10-14T19:30:03.036Z,10.9
2017-10-14T19:45:04.380Z,10.6
2017-10-14T20:00:05.275Z,10.4
2017-10-14T20:15:04.245Z,10.2
2017-10-14T20:30:04.360Z,10.1
2017-10-14T20:45:04.386Z,9.6
2017-10-14T21:00:03.349Z,9.7
2017-10-14T21:15:03.293Z,9.5
2017-10-14T21:30:03.344Z,9.1
2017-10-14T21:45:03.137Z,9
2017-10-14T22:00:03.218Z,9.1
2017-10-14T22:15:03.250Z,8.9
2017-10-14T22:30:04.442Z,8.4
2017-10-14T22:45:04.718Z,8.7
2017-10-14T23:00:05.027Z,8.7
2017-10-14T23:15:03.683Z,8.2
2017-10-14T23:30:03.015Z,8.4
2017-10-14T23:45:03.061Z,7.7
